createdAt,value
2019-03-20T00:02:12.595Z,4.27
2019-03-20T00:04:49.672Z,4.77
2019-03-20T00:07:11.215Z,4.13
2019-03-20T00:09:38.683Z,4.63
2019-03-20T00:12:06.097Z,4.43
2019-03-20T00:14:33.468Z,4.03
2019-03-20T00:17:00.870Z,4.37
2019-03-20T00:19:28.324Z,4.30
2019-03-20T00:21:55.830Z,3.93
2019-03-20T00:24:23.322Z,4.47
2019-03-20T00:26:50.683Z,4.77
2019-03-20T00:29:18.581Z,4.93
2019-03-20T00:31:46.017Z,4.90
2019-03-20T00:34:13.519Z,5.43
2019-03-20T00:36:41.007Z,4.57
2019-03-20T00:39:08.474Z,4.47
2019-03-20T00:41:35.839Z,4.37
2019-03-20T00:44:03.412Z,4.27
2019-03-20T00:46:30.805Z,4.23
2019-03-20T00:48:58.255Z,4.80
2019-03-20T00:51:25.721Z,5.53
2019-03-20T00:53:53.193Z,5.00
2019-03-20T00:56:20.650Z,4.13
2019-03-20T00:58:48.151Z,4.60
2019-03-20T01:01:15.707Z,4.30
2019-03-20T01:03:43.068Z,4.00
2019-03-20T01:06:10.542Z,4.27
2019-03-20T01:08:38.021Z,3.83
2019-03-20T01:11:05.579Z,3.73
2019-03-20T01:13:32.936Z,3.20
2019-03-20T01:16:00.419Z,3.57
2019-03-20T01:18:27.894Z,3.90
2019-03-20T01:20:55.387Z,2.97
2019-03-20T01:23:22.845Z,3.37
2019-03-20T01:25:50.262Z,2.80
2019-03-20T01:28:17.735Z,4.00
2019-03-20T01:30:45.094Z,3.90
2019-03-20T01:33:12.568Z,3.43
2019-03-20T01:35:40.103Z,3.37
2019-03-20T01:38:07.635Z,4.80
2019-03-20T01:40:35.291Z,4.20
2019-03-20T01:43:02.975Z,3.20
2019-03-20T01:45:30.438Z,3.20
2019-03-20T01:47:57.965Z,3.43
2019-03-20T01:50:25.438Z,3.60
2019-03-20T01:52:52.941Z,3.40
2019-03-20T01:55:20.288Z,3.57
2019-03-20T01:57:47.760Z,4.50
2019-03-20T02:00:15.208Z,3.43
2019-03-20T02:02:42.694Z,2.97
2019-03-20T02:05:10.671Z,4.13
2019-03-20T02:07:38.129Z,3.57
2019-03-20T02:10:06.417Z,3.70
2019-03-20T02:12:33.949Z,3.40
2019-03-20T02:15:01.412Z,3.80
2019-03-20T02:17:28.778Z,4.23
2019-03-20T02:19:57.578Z,3.70
2019-03-20T02:22:25.020Z,3.63
2019-03-20T02:24:53.574Z,4.30
2019-03-20T02:27:21.019Z,4.17
2019-03-20T02:29:48.532Z,3.93
2019-03-20T02:32:15.988Z,4.70
2019-03-20T02:34:43.480Z,4.07
2019-03-20T02:37:10.951Z,4.77
2019-03-20T02:39:38.327Z,4.63
2019-03-20T02:42:05.693Z,4.47
2019-03-20T02:44:33.168Z,4.00
2019-03-20T02:47:00.533Z,4.67
2019-03-20T02:49:27.990Z,4.43
2019-03-20T02:51:55.420Z,4.57
2019-03-20T02:54:22.812Z,5.17
2019-03-20T02:56:50.191Z,4.10
2019-03-20T02:59:17.677Z,3.83
2019-03-20T03:01:45.157Z,5.20
2019-03-20T03:04:12.617Z,5.70
2019-03-20T03:06:40.840Z,5.10
2019-03-20T03:09:08.342Z,5.10
2019-03-20T03:11:35.810Z,5.93
2019-03-20T03:14:03.298Z,7.33
2019-03-20T03:16:30.766Z,8.23
2019-03-20T03:18:58.235Z,7.10
2019-03-20T03:21:25.704Z,6.90
2019-03-20T03:23:53.095Z,5.03
2019-03-20T03:26:20.540Z,5.23
2019-03-20T03:28:48.031Z,5.60
2019-03-20T03:31:15.529Z,5.33
2019-03-20T03:33:42.981Z,5.17
2019-03-20T03:36:20.590Z,5.17
2019-03-20T03:38:39.714Z,4.63
2019-03-20T03:41:07.282Z,4.87
2019-03-20T03:43:34.815Z,4.37
2019-03-20T03:46:02.268Z,4.60
2019-03-20T03:48:29.768Z,4.93
2019-03-20T03:50:57.245Z,4.60
2019-03-20T03:53:24.738Z,5.20
2019-03-20T03:55:52.177Z,4.57
2019-03-20T03:58:19.641Z,4.70
2019-03-20T04:00:47.188Z,4.77
2019-03-20T04:03:14.650Z,5.50
2019-03-20T04:05:42.165Z,6.63
2019-03-20T04:08:09.651Z,6.43
2019-03-20T04:10:37.480Z,6.23
2019-03-20T04:13:06.960Z,6.10
2019-03-20T04:15:36.391Z,6.43
2019-03-20T04:18:03.678Z,5.77
2019-03-20T04:20:31.149Z,5.67
2019-03-20T04:22:58.596Z,5.53
2019-03-20T04:25:26.042Z,4.90
2019-03-20T04:27:57.507Z,5.20
2019-03-20T04:30:24.986Z,4.47
2019-03-20T04:32:53.175Z,3.93
2019-03-20T04:35:20.680Z,4.03
2019-03-20T04:37:48.169Z,4.37
2019-03-20T04:40:15.759Z,4.53
2019-03-20T04:42:43.204Z,4.73
2019-03-20T04:45:12.522Z,4.27
2019-03-20T04:47:40.101Z,4.23
2019-03-20T04:50:08.386Z,4.50
2019-03-20T04:52:37.592Z,4.63
2019-03-20T04:55:05.656Z,4.17
2019-03-20T04:57:33.116Z,4.57
2019-03-20T05:00:00.583Z,3.70
2019-03-20T05:02:27.952Z,5.63
2019-03-20T05:04:55.423Z,5.30
2019-03-20T05:07:22.877Z,3.63
2019-03-20T05:09:50.332Z,3.77
2019-03-20T05:12:17.724Z,4.63
2019-03-20T05:14:45.178Z,3.17
2019-03-20T05:17:12.701Z,3.93
2019-03-20T05:19:40.212Z,3.07
2019-03-20T05:22:07.679Z,4.80
2019-03-20T05:24:35.144Z,3.50
2019-03-20T05:27:02.649Z,4.07
2019-03-20T05:29:30.096Z,4.60
2019-03-20T05:31:57.552Z,3.63
2019-03-20T05:34:25.027Z,4.20
2019-03-20T05:36:52.540Z,4.57
2019-03-20T05:39:19.955Z,4.60
2019-03-20T05:41:47.444Z,4.50
2019-03-20T05:44:14.888Z,4.07
2019-03-20T05:46:42.235Z,4.53
2019-03-20T05:49:09.690Z,4.60
2019-03-20T05:51:37.168Z,3.50
2019-03-20T05:54:04.644Z,4.63
2019-03-20T05:56:32.151Z,3.77
2019-03-20T05:58:59.624Z,4.53
2019-03-20T06:01:27.124Z,4.20
2019-03-20T06:03:54.507Z,4.67
2019-03-20T06:06:22.071Z,4.67
2019-03-20T06:08:49.548Z,5.10
2019-03-20T06:11:16.949Z,4.40
2019-03-20T06:13:44.454Z,5.07
2019-03-20T06:16:11.818Z,4.60
2019-03-20T06:18:39.180Z,4.80
2019-03-20T06:21:06.627Z,3.40
2019-03-20T06:23:34.098Z,4.03
2019-03-20T06:26:01.519Z,3.93
2019-03-20T06:28:28.897Z,3.83
2019-03-20T06:30:56.360Z,4.07
2019-03-20T06:33:23.872Z,4.70
2019-03-20T06:35:51.345Z,3.37
2019-03-20T06:38:18.832Z,3.77
2019-03-20T06:40:46.235Z,3.53
2019-03-20T06:43:13.702Z,3.47
2019-03-20T06:45:41.136Z,3.93
2019-03-20T06:48:08.669Z,3.53
2019-03-20T06:50:36.119Z,4.10
2019-03-20T06:53:03.676Z,3.93
2019-03-20T06:55:31.160Z,4.00
2019-03-20T06:57:58.520Z,3.30
2019-03-20T07:01:06.551Z,3.37
2019-03-20T07:03:40.660Z,3.17
2019-03-20T07:06:34.579Z,2.83
2019-03-20T07:09:38.837Z,3.90
2019-03-20T07:12:06.377Z,3.20
2019-03-20T07:14:33.862Z,3.60
2019-03-20T07:17:01.303Z,4.47
2019-03-20T07:19:28.822Z,3.93
2019-03-20T07:21:56.332Z,3.63
2019-03-20T07:24:23.886Z,3.10
2019-03-20T07:26:51.373Z,2.83
2019-03-20T07:29:19.047Z,2.97
2019-03-20T07:31:46.531Z,2.20
2019-03-20T07:34:14.062Z,3.43
2019-03-20T07:36:41.503Z,3.93
2019-03-20T07:39:09.104Z,3.30
2019-03-20T07:41:36.485Z,2.63
2019-03-20T07:44:03.951Z,3.73
2019-03-20T07:46:31.389Z,3.07
2019-03-20T07:48:58.864Z,3.30
2019-03-20T07:51:26.229Z,3.43
2019-03-20T07:53:53.666Z,3.93
2019-03-20T07:56:21.025Z,3.27
2019-03-20T07:58:49.778Z,3.73
2019-03-20T08:01:17.238Z,3.67
2019-03-20T08:03:44.737Z,3.87
2019-03-20T08:06:12.219Z,3.20
2019-03-20T08:08:39.691Z,3.00
2019-03-20T08:11:07.167Z,3.30
2019-03-20T08:13:36.593Z,3.10
2019-03-20T08:16:04.134Z,3.57
2019-03-20T08:18:31.676Z,3.87
2019-03-20T08:20:59.120Z,3.70
2019-03-20T08:23:26.656Z,3.23
2019-03-20T08:25:54.039Z,3.33
2019-03-20T08:28:21.506Z,3.13
2019-03-20T08:30:49.037Z,2.90
2019-03-20T08:33:16.539Z,3.40
2019-03-20T08:35:43.993Z,3.37
2019-03-20T08:38:18.399Z,2.97
2019-03-20T08:40:40.865Z,4.13
2019-03-20T08:43:08.347Z,3.03
2019-03-20T08:45:35.988Z,2.83
2019-03-20T08:48:03.922Z,3.63
2019-03-20T08:50:31.417Z,2.83
2019-03-20T08:52:58.833Z,3.30
2019-03-20T08:55:26.233Z,3.63
2019-03-20T08:57:53.683Z,3.57
2019-03-20T09:00:21.204Z,3.57
2019-03-20T09:02:52.168Z,3.23
2019-03-20T09:05:21.435Z,2.80
2019-03-20T09:07:49.159Z,3.00
2019-03-20T09:10:18.005Z,3.17
2019-03-20T09:12:45.391Z,3.17
2019-03-20T09:15:13.663Z,3.60
2019-03-20T09:17:41.050Z,2.70
2019-03-20T09:20:10.972Z,3.33
2019-03-20T09:22:39.529Z,2.73
2019-03-20T09:25:08.554Z,2.27
2019-03-20T09:27:36.112Z,2.43
2019-03-20T09:30:04.176Z,3.90
2019-03-20T09:32:31.532Z,2.80
2019-03-20T09:34:59.060Z,3.13
2019-03-20T09:37:26.548Z,2.60
2019-03-20T09:39:54.038Z,1.97
2019-03-20T09:42:21.520Z,1.87
2019-03-20T09:44:48.932Z,2.50
2019-03-20T09:47:23.495Z,2.83
2019-03-20T09:49:50.988Z,2.33
2019-03-20T09:52:18.434Z,2.83
2019-03-20T09:54:46.310Z,2.80
2019-03-20T09:57:13.838Z,2.80
2019-03-20T09:59:41.264Z,3.33
2019-03-20T10:02:08.625Z,2.90
2019-03-20T10:04:37.408Z,2.90
2019-03-20T10:07:07.580Z,3.07
2019-03-20T10:09:34.912Z,3.07
2019-03-20T10:12:02.288Z,3.20
2019-03-20T10:14:29.800Z,3.63
2019-03-20T10:16:58.141Z,3.07
2019-03-20T10:19:25.624Z,3.40
2019-03-20T10:21:53.076Z,3.50
2019-03-20T10:24:20.626Z,3.13
2019-03-20T10:26:48.068Z,3.07
2019-03-20T10:29:15.526Z,2.70
2019-03-20T10:31:42.992Z,3.07
2019-03-20T10:34:10.476Z,2.80
2019-03-20T10:36:37.970Z,2.90
2019-03-20T10:39:07.485Z,3.33
2019-03-20T10:41:34.946Z,2.63
2019-03-20T10:44:03.353Z,2.83
2019-03-20T10:46:30.920Z,3.43
2019-03-20T10:48:58.394Z,3.43
2019-03-20T10:51:26.096Z,2.80
2019-03-20T10:53:53.530Z,3.87
2019-03-20T10:56:22.060Z,3.57
2019-03-20T10:58:49.506Z,2.77
2019-03-20T11:01:16.947Z,3.53
2019-03-20T11:03:44.441Z,3.37
2019-03-20T11:06:11.842Z,2.40
2019-03-20T11:08:39.342Z,2.97
2019-03-20T11:11:07.003Z,3.20
2019-03-20T11:13:34.448Z,2.73
2019-03-20T11:16:01.921Z,3.30
2019-03-20T11:18:29.474Z,3.17
2019-03-20T11:20:57.613Z,3.60
2019-03-20T11:23:25.073Z,3.37
2019-03-20T11:25:52.567Z,3.90
2019-03-20T11:28:20.005Z,3.33
2019-03-20T11:30:48.333Z,4.00
2019-03-20T11:33:15.929Z,4.03
2019-03-20T11:35:43.411Z,2.77
2019-03-20T11:38:10.989Z,3.13
2019-03-20T11:40:38.458Z,3.30
2019-03-20T11:43:19.549Z,4.13
2019-03-20T11:45:47.035Z,3.07
2019-03-20T11:48:14.541Z,3.00
2019-03-20T11:50:42.061Z,2.90
2019-03-20T11:53:09.542Z,3.47
2019-03-20T11:55:36.905Z,3.00
2019-03-20T11:58:04.659Z,3.10
2019-03-20T12:00:31.999Z,3.03
2019-03-20T12:03:02.101Z,2.87
2019-03-20T12:05:29.521Z,3.47
2019-03-20T12:07:56.915Z,2.80
2019-03-20T12:10:24.255Z,3.13
2019-03-20T12:12:51.651Z,2.90
2019-03-20T12:15:19.145Z,3.43
2019-03-20T12:17:46.740Z,3.53
2019-03-20T12:20:18.983Z,3.37
2019-03-20T12:22:47.773Z,3.17
2019-03-20T12:25:20.084Z,3.50
2019-03-20T12:27:47.531Z,3.10
2019-03-20T12:30:18.367Z,2.67
2019-03-20T12:32:45.823Z,3.90
2019-03-20T12:35:15.199Z,3.23
2019-03-20T12:37:42.704Z,3.93
2019-03-20T12:40:14.140Z,3.43
2019-03-20T12:42:41.566Z,3.33
2019-03-20T12:45:11.033Z,2.60
2019-03-20T12:47:38.497Z,2.97
2019-03-20T12:50:08.171Z,2.90
2019-03-20T12:52:35.592Z,2.67
2019-03-20T12:55:03.502Z,2.77
2019-03-20T12:57:30.945Z,3.43
2019-03-20T12:59:58.431Z,3.53
2019-03-20T13:02:25.880Z,3.03
2019-03-20T13:04:53.234Z,3.10
2019-03-20T13:07:20.776Z,2.80
2019-03-20T13:09:48.232Z,3.10
2019-03-20T13:12:15.994Z,3.23
2019-03-20T13:14:43.458Z,2.53
2019-03-20T13:17:11.203Z,2.77
2019-03-20T13:19:38.598Z,2.97
2019-03-20T13:22:05.954Z,2.77
2019-03-20T13:24:33.368Z,2.90
2019-03-20T13:27:03.128Z,3.10
2019-03-20T13:29:30.533Z,3.00
2019-03-20T13:31:57.994Z,2.27
2019-03-20T13:34:25.373Z,2.77
2019-03-20T13:36:52.918Z,3.80
2019-03-20T13:39:20.308Z,4.00
2019-03-20T13:41:47.703Z,3.53
2019-03-20T13:44:15.128Z,3.20
2019-03-20T13:46:42.598Z,3.43
2019-03-20T13:49:10.102Z,3.93
2019-03-20T13:51:37.550Z,3.17
2019-03-20T13:54:05.107Z,3.67
2019-03-20T13:56:32.615Z,3.10
2019-03-20T13:59:00.037Z,3.10
2019-03-20T14:01:27.382Z,3.27
2019-03-20T14:03:54.754Z,3.53
2019-03-20T14:06:22.128Z,2.70
2019-03-20T14:08:49.606Z,2.97
2019-03-20T14:11:17.058Z,2.93
2019-03-20T14:13:44.454Z,3.00
2019-03-20T14:16:11.908Z,3.80
2019-03-20T14:18:39.476Z,5.70
2019-03-20T14:21:07.198Z,3.07
2019-03-20T14:23:34.557Z,3.27
2019-03-20T14:26:02.101Z,4.07
2019-03-20T14:28:29.647Z,3.20
2019-03-20T14:30:57.154Z,3.00
2019-03-20T14:33:24.698Z,3.03
2019-03-20T14:35:52.175Z,3.37
2019-03-20T14:38:19.674Z,3.43
2019-03-20T14:40:47.061Z,4.03
2019-03-20T14:43:14.504Z,3.60
2019-03-20T14:45:42.001Z,3.33
2019-03-20T14:48:09.437Z,3.53
2019-03-20T14:50:36.916Z,3.97
2019-03-20T14:53:04.426Z,3.63
2019-03-20T14:55:31.961Z,3.03
2019-03-20T14:58:00.382Z,3.57
2019-03-20T15:00:27.926Z,4.13
2019-03-20T15:02:55.381Z,3.67
2019-03-20T15:05:22.810Z,3.20
2019-03-20T15:07:50.322Z,4.13
2019-03-20T15:10:19.330Z,3.20
2019-03-20T15:12:46.773Z,4.20
2019-03-20T15:15:35.411Z,3.27
2019-03-20T15:18:02.767Z,2.90
2019-03-20T15:20:30.220Z,3.10
2019-03-20T15:22:57.637Z,3.10
2019-03-20T15:25:24.996Z,3.43
2019-03-20T15:27:52.486Z,3.80
2019-03-20T15:30:20.050Z,2.73
2019-03-20T15:32:47.401Z,2.40
2019-03-20T15:35:14.765Z,3.13
2019-03-20T15:37:42.226Z,2.53
2019-03-20T15:40:11.745Z,2.97
2019-03-20T15:42:39.276Z,3.13
2019-03-20T15:45:07.560Z,2.63
2019-03-20T15:47:34.941Z,2.60
2019-03-20T15:50:02.477Z,2.70
2019-03-20T15:52:29.970Z,2.83
2019-03-20T15:54:57.421Z,2.10
2019-03-20T15:57:24.900Z,2.10
2019-03-20T15:59:52.360Z,2.30
2019-03-20T16:02:19.892Z,1.93
2019-03-20T16:04:47.691Z,1.90
2019-03-20T16:07:15.077Z,2.27
2019-03-20T16:09:42.541Z,1.83
2019-03-20T16:12:09.995Z,2.20
2019-03-20T16:14:37.516Z,2.33
2019-03-20T16:17:07.101Z,2.00
2019-03-20T16:19:34.444Z,3.23
2019-03-20T16:22:01.899Z,2.73
2019-03-20T16:24:29.294Z,2.50
2019-03-20T16:26:56.746Z,3.00
2019-03-20T16:29:24.376Z,2.70
2019-03-20T16:31:51.827Z,3.07
2019-03-20T16:34:19.327Z,2.00
2019-03-20T16:36:46.809Z,2.73
2019-03-20T16:39:14.258Z,2.13
2019-03-20T16:41:41.757Z,2.30
2019-03-20T16:44:09.214Z,2.23
2019-03-20T16:46:36.579Z,2.77
2019-03-20T16:49:04.065Z,3.20
2019-03-20T16:51:31.581Z,4.00
2019-03-20T16:53:59.039Z,4.10
2019-03-20T16:56:26.398Z,3.27
2019-03-20T16:58:55.691Z,3.07
2019-03-20T17:01:23.215Z,2.80
2019-03-20T17:03:50.630Z,2.87
2019-03-20T17:06:18.110Z,3.13
2019-03-20T17:08:45.623Z,2.63
2019-03-20T17:11:13.172Z,2.10
2019-03-20T17:13:40.740Z,2.40
2019-03-20T17:16:08.291Z,2.60
2019-03-20T17:18:35.844Z,2.37
2019-03-20T17:21:03.340Z,2.23
2019-03-20T17:23:31.235Z,2.43
2019-03-20T17:25:59.022Z,2.23
2019-03-20T17:28:26.709Z,2.33
2019-03-20T17:30:54.193Z,2.27
2019-03-20T17:33:21.721Z,2.40
2019-03-20T17:35:49.267Z,2.83
2019-03-20T17:38:19.023Z,2.83
2019-03-20T17:40:46.614Z,3.07
2019-03-20T17:43:15.046Z,2.70
2019-03-20T17:45:42.480Z,3.40
2019-03-20T17:48:10.306Z,2.57
2019-03-20T17:50:37.710Z,2.57
2019-03-20T17:53:08.083Z,2.30
2019-03-20T17:58:40.649Z,2.63
2019-03-20T18:01:09.558Z,2.50
2019-03-20T18:03:39.026Z,2.23
2019-03-20T18:06:06.445Z,2.37
2019-03-20T18:08:33.930Z,2.57
2019-03-20T18:14:28.210Z,2.87
2019-03-20T18:19:37.256Z,2.70
2019-03-20T18:22:06.568Z,2.43
2019-03-20T18:24:33.924Z,2.60
2019-03-20T18:27:01.289Z,3.30
2019-03-20T18:29:29.412Z,2.30
2019-03-20T18:31:56.870Z,3.67
2019-03-20T18:34:24.761Z,3.23
2019-03-20T18:36:52.166Z,4.23
2019-03-20T18:39:20.820Z,3.27
2019-03-20T18:41:57.330Z,3.13
2019-03-20T18:44:17.561Z,3.20
2019-03-20T18:46:45.088Z,3.83
2019-03-20T18:49:12.592Z,3.67
2019-03-20T18:51:40.032Z,3.33
2019-03-20T18:54:07.487Z,3.80
2019-03-20T18:56:34.957Z,3.13
2019-03-20T18:59:02.884Z,3.30
2019-03-20T19:01:30.367Z,3.53
2019-03-20T19:03:57.863Z,9.30
2019-03-20T19:06:26.213Z,6.27
2019-03-20T19:08:53.680Z,5.73
2019-03-20T19:11:21.163Z,4.00
2019-03-20T19:13:48.680Z,4.73
2019-03-20T19:16:16.086Z,4.60
2019-03-20T19:18:43.542Z,3.80
2019-03-20T19:21:10.993Z,3.97
2019-03-20T19:23:38.415Z,4.43
2019-03-20T19:26:06.081Z,4.50
2019-03-20T19:28:33.423Z,5.23
2019-03-20T19:31:00.867Z,4.77
2019-03-20T19:33:29.973Z,4.87
2019-03-20T19:35:57.443Z,5.57
2019-03-20T19:38:34.540Z,5.33
2019-03-20T19:40:54.205Z,5.60
2019-03-20T19:43:22.797Z,6.03
2019-03-20T19:45:50.862Z,5.73
2019-03-20T19:48:18.345Z,5.83
2019-03-20T19:50:45.811Z,4.93
2019-03-20T19:53:13.247Z,4.30
2019-03-20T19:55:42.991Z,4.47
2019-03-20T19:58:10.588Z,5.83
2019-03-20T20:00:38.452Z,5.30
2019-03-20T20:03:05.916Z,4.27
2019-03-20T20:05:33.362Z,4.37
2019-03-20T20:08:03.019Z,3.40
2019-03-20T20:10:30.443Z,4.50
2019-03-20T20:12:58.909Z,5.00
2019-03-20T20:15:26.377Z,4.23
2019-03-20T20:17:55.540Z,5.63
2019-03-20T20:20:25.193Z,4.60
2019-03-20T20:22:52.671Z,3.03
2019-03-20T20:25:20.580Z,3.40
2019-03-20T20:27:48.043Z,3.80
2019-03-20T20:30:16.217Z,4.47
2019-03-20T20:32:43.773Z,4.63
2019-03-20T20:35:11.542Z,4.60
2019-03-20T20:37:39.039Z,5.30
2019-03-20T20:40:07.515Z,5.83
2019-03-20T20:42:42.931Z,4.90
2019-03-20T20:45:04.629Z,4.53
2019-03-20T20:47:32.669Z,4.60
2019-03-20T20:50:00.112Z,4.80
2019-03-20T20:52:27.498Z,5.33
2019-03-20T20:54:54.979Z,5.10
2019-03-20T20:57:22.569Z,5.13
2019-03-20T20:59:50.076Z,6.60
2019-03-20T21:02:17.567Z,6.20
2019-03-20T21:04:44.993Z,6.40
2019-03-20T21:07:12.380Z,5.93
2019-03-20T21:09:41.913Z,5.47
2019-03-20T21:12:11.224Z,6.53
2019-03-20T21:14:38.535Z,5.57
2019-03-20T21:17:10.073Z,6.53
2019-03-20T21:19:39.188Z,6.57
2019-03-20T21:22:42.658Z,5.47
2019-03-20T21:25:12.995Z,6.60
2019-03-20T21:28:26.610Z,5.63
2019-03-20T21:31:11.956Z,6.37
2019-03-20T21:34:30.610Z,6.50
2019-03-20T21:37:41.671Z,9.00
2019-03-20T21:40:14.610Z,8.57
2019-03-20T21:43:57.224Z,7.97
2019-03-20T21:47:11.448Z,8.83
2019-03-20T21:49:42.605Z,5.93
2019-03-20T21:52:10.775Z,6.20
2019-03-20T21:55:21.682Z,5.97
2019-03-20T21:58:14.278Z,5.30
2019-03-20T22:01:17.148Z,6.03
2019-03-20T22:03:45.070Z,5.60
2019-03-20T22:07:12.465Z,5.77
2019-03-20T22:10:34.326Z,6.00
2019-03-20T22:13:28.715Z,7.03
2019-03-20T22:16:39.211Z,6.37
2019-03-20T22:19:38.926Z,6.73
2019-03-20T22:22:37.289Z,6.50
2019-03-20T22:25:48.050Z,6.73
2019-03-20T22:29:06.204Z,6.17
2019-03-20T22:31:35.588Z,5.93
2019-03-20T22:34:49.811Z,5.37
2019-03-20T22:37:17.703Z,5.93
2019-03-20T22:40:29.200Z,7.07
2019-03-20T22:43:10.636Z,7.40
2019-03-20T22:46:44.327Z,7.23
2019-03-20T22:49:37.148Z,7.20
2019-03-20T22:52:40.186Z,7.07
2019-03-20T22:55:38.596Z,6.73
2019-03-20T22:58:50.071Z,7.20
2019-03-20T23:01:37.510Z,6.07
2019-03-20T23:04:13.420Z,6.87
2019-03-20T23:06:41.344Z,7.20
2019-03-20T23:09:09.724Z,7.80
2019-03-20T23:11:37.708Z,8.13
2019-03-20T23:14:07.780Z,7.07
2019-03-20T23:16:35.827Z,7.13
2019-03-20T23:19:03.796Z,7.17
2019-03-20T23:21:31.815Z,7.13
2019-03-20T23:23:59.786Z,7.27
2019-03-20T23:26:28.322Z,7.83
2019-03-20T23:28:56.313Z,8.07
2019-03-20T23:31:24.277Z,7.47
2019-03-20T23:33:52.183Z,7.97
2019-03-20T23:36:20.089Z,8.63
2019-03-20T23:38:48.060Z,8.10
2019-03-20T23:41:16.085Z,8.27
2019-03-20T23:43:52.388Z,8.40
2019-03-20T23:46:13.813Z,9.13
2019-03-20T23:48:51.431Z,8.87
2019-03-20T23:51:20.512Z,9.53
2019-03-20T23:53:50.711Z,8.93
2019-03-20T23:56:18.711Z,8.97
2019-03-20T23:58:46.585Z,8.60
